createdAt,value
2022-08-20T00:01:40.043Z,94.14
2022-08-20T00:04:10.361Z,94.51
2022-08-20T00:06:42.343Z,94.82
2022-08-20T00:09:12.406Z,94.61
2022-08-20T00:11:42.372Z,94.94
2022-08-20T00:14:12.229Z,95.41
2022-08-20T00:16:41.974Z,95.57
2022-08-20T00:19:12.081Z,95.24
2022-08-20T00:21:41.453Z,90.59
2022-08-20T00:24:11.710Z,91.63
2022-08-20T00:26:51.777Z,91.62
2022-08-20T00:29:22.797Z,93.06
2022-08-20T00:31:52.818Z,93.49
2022-08-20T00:34:22.626Z,93.80
2022-08-20T00:36:52.402Z,94.19
2022-08-20T00:39:22.237Z,94.15
2022-08-20T00:41:53.129Z,94.02
2022-08-20T00:44:24.344Z,94.61
2022-08-20T00:46:55.957Z,94.92
2022-08-20T00:49:29.562Z,95.25
2022-08-20T00:52:09.191Z,95.47
2022-08-20T00:54:48.403Z,95.15
2022-08-20T00:57:44.515Z,95.16
2022-08-20T01:00:29.097Z,95.19
2022-08-20T01:03:01.693Z,95.52
2022-08-20T01:05:32.366Z,94.60
2022-08-20T01:08:07.080Z,94.78
2022-08-20T01:10:43.165Z,95.33
2022-08-20T01:13:41.076Z,94.89
2022-08-20T01:16:28.138Z,94.17
2022-08-20T01:19:29.476Z,94.00
2022-08-20T01:26:39.914Z,93.44
2022-08-20T01:29:26.580Z,94.41
2022-08-20T01:39:08.447Z,95.11
2022-08-20T01:41:41.556Z,95.40
2022-08-20T01:44:34.737Z,95.58
2022-08-20T01:47:50.699Z,95.52
2022-08-20T01:50:45.619Z,96.02
2022-08-20T01:53:35.744Z,95.82
2022-08-20T02:00:44.687Z,95.12
2022-08-20T02:03:44.414Z,94.93
2022-08-20T02:06:56.170Z,95.01
2022-08-20T02:09:55.939Z,95.31
2022-08-20T02:15:39.821Z,95.53
2022-08-20T02:18:16.596Z,95.75
2022-08-20T02:20:47.355Z,96.00
2022-08-20T02:23:17.909Z,96.46
2022-08-20T02:25:49.545Z,96.21
2022-08-20T02:28:21.798Z,96.52
2022-08-20T02:30:56.823Z,96.52
2022-08-20T02:33:27.048Z,96.39
2022-08-20T02:35:57.610Z,96.76
2022-08-20T02:38:27.796Z,96.80
2022-08-20T02:40:57.521Z,96.84
2022-08-20T02:43:27.260Z,96.78
2022-08-20T02:45:56.979Z,96.83
2022-08-20T02:48:27.877Z,96.84
2022-08-20T02:51:06.208Z,96.95
2022-08-20T02:53:42.861Z,96.99
2022-08-20T02:56:12.833Z,96.25
2022-08-20T02:58:43.211Z,96.87
2022-08-20T03:01:16.168Z,97.24
2022-08-20T03:03:47.122Z,97.21
2022-08-20T03:06:17.736Z,97.30
2022-08-20T03:08:47.504Z,97.42
2022-08-20T03:11:17.661Z,97.61
2022-08-20T03:13:46.907Z,96.58
2022-08-20T03:16:17.824Z,97.39
2022-08-20T03:18:49.203Z,97.54
2022-08-20T03:21:22.273Z,97.52
2022-08-20T03:23:52.039Z,97.70
2022-08-20T03:26:22.032Z,97.77
2022-08-20T03:28:51.891Z,98.01
2022-08-20T03:31:22.210Z,97.96
2022-08-20T03:33:53.466Z,97.83
2022-08-20T03:36:28.074Z,97.57
2022-08-20T03:39:00.534Z,97.41
2022-08-20T03:41:33.281Z,97.46
2022-08-20T03:44:03.150Z,97.04
2022-08-20T03:46:32.878Z,96.75
2022-08-20T03:49:02.752Z,96.72
2022-08-20T03:51:51.460Z,96.17
2022-08-20T03:54:23.629Z,95.87
2022-08-20T03:56:57.991Z,96.34
2022-08-20T03:59:28.368Z,96.28
2022-08-20T04:01:58.326Z,96.39
2022-08-20T04:04:28.565Z,96.76
2022-08-20T04:06:58.285Z,96.89
2022-08-20T04:09:28.341Z,97.04
2022-08-20T04:12:01.328Z,97.14
2022-08-20T04:14:31.508Z,97.27
2022-08-20T04:17:07.525Z,97.20
2022-08-20T04:19:40.648Z,97.35
2022-08-20T04:22:10.594Z,97.38
2022-08-20T04:24:40.289Z,97.54
2022-08-20T04:27:10.664Z,97.39
2022-08-20T04:29:44.289Z,97.82
2022-08-20T04:32:15.128Z,97.52
2022-08-20T04:34:48.608Z,97.42
2022-08-20T04:37:22.699Z,97.76
2022-08-20T04:40:12.938Z,97.78
2022-08-20T04:42:43.561Z,97.79
2022-08-20T04:45:12.985Z,97.15
2022-08-20T04:47:42.955Z,97.61
2022-08-20T04:50:15.054Z,97.71
2022-08-20T04:52:45.206Z,97.90
2022-08-20T04:55:14.999Z,98.01
2022-08-20T04:57:45.576Z,97.97
2022-08-20T05:00:18.443Z,97.95
2022-08-20T05:02:48.754Z,97.79
2022-08-20T05:05:18.456Z,97.65
2022-08-20T05:07:48.454Z,97.90
2022-08-20T05:10:21.079Z,98.14
2022-08-20T05:12:55.630Z,98.12
2022-08-20T05:15:27.471Z,97.47
2022-08-20T05:18:01.596Z,97.99
2022-08-20T05:20:33.254Z,98.16
2022-08-20T05:23:04.430Z,98.35
2022-08-20T05:25:35.949Z,98.36
2022-08-20T05:28:10.951Z,98.15
2022-08-20T05:30:44.079Z,98.40
2022-08-20T05:33:20.992Z,98.32
2022-08-20T05:35:53.883Z,98.21
2022-08-20T05:38:27.590Z,98.11
2022-08-20T05:40:57.859Z,98.13
2022-08-20T05:43:27.830Z,98.21
2022-08-20T05:45:59.583Z,98.27
2022-08-20T05:48:31.506Z,98.34
2022-08-20T05:51:01.877Z,98.46
2022-08-20T05:53:32.013Z,98.49
2022-08-20T05:56:03.139Z,98.50
2022-08-20T05:58:34.121Z,98.68
2022-08-20T06:01:04.197Z,98.44
2022-08-20T06:03:52.073Z,98.44
2022-08-20T06:06:45.020Z,98.55
2022-08-20T06:09:12.592Z,98.68
2022-08-20T06:11:42.303Z,98.62
2022-08-20T06:14:12.070Z,98.74
2022-08-20T06:16:50.396Z,98.65
2022-08-20T06:19:32.267Z,98.63
2022-08-20T06:22:08.730Z,98.74
2022-08-20T06:24:50.877Z,98.82
2022-08-20T06:27:22.051Z,98.86
2022-08-20T06:29:52.733Z,99.00
2022-08-20T06:32:31.751Z,98.72
2022-08-20T06:35:09.396Z,98.82
2022-08-20T06:37:40.967Z,98.90
2022-08-20T06:40:20.801Z,99.27
2022-08-20T06:42:52.436Z,98.90
2022-08-20T06:45:27.055Z,98.92
2022-08-20T06:47:59.704Z,98.90
2022-08-20T06:50:47.503Z,99.06
2022-08-20T06:53:20.288Z,98.94
2022-08-20T06:55:57.147Z,99.31
2022-08-20T06:58:37.191Z,99.03
2022-08-20T07:01:11.101Z,99.12
2022-08-20T07:03:54.927Z,98.91
2022-08-20T07:06:27.110Z,99.04
2022-08-20T07:08:57.426Z,99.54
2022-08-20T07:11:28.435Z,99.66
2022-08-20T07:14:00.127Z,99.58
2022-08-20T07:16:30.197Z,99.57
2022-08-20T07:19:00.059Z,99.61
2022-08-20T07:21:31.503Z,99.31
2022-08-20T07:24:01.725Z,99.39
2022-08-20T07:26:31.452Z,99.44
2022-08-20T07:29:01.416Z,99.22
2022-08-20T07:31:49.519Z,99.32
2022-08-20T07:34:19.606Z,99.19
2022-08-20T07:36:49.956Z,99.40
2022-08-20T07:39:20.498Z,99.58
2022-08-20T07:42:04.105Z,99.17
2022-08-20T07:44:33.992Z,99.08
2022-08-20T07:47:06.644Z,99.36
2022-08-20T07:49:39.992Z,99.25
2022-08-20T07:52:10.708Z,99.29
2022-08-20T07:54:41.075Z,99.61
2022-08-20T07:57:12.576Z,99.42
2022-08-20T07:59:42.437Z,99.42
2022-08-20T08:02:12.154Z,99.49
2022-08-20T08:04:42.107Z,98.99
2022-08-20T08:07:11.747Z,99.15
2022-08-20T08:09:41.701Z,99.24
2022-08-20T08:12:14.113Z,99.65
2022-08-20T08:14:47.317Z,99.22
2022-08-20T08:17:19.693Z,99.52
2022-08-20T08:19:52.568Z,99.32
2022-08-20T08:22:22.802Z,99.45
2022-08-20T08:24:57.437Z,99.53
2022-08-20T08:27:27.991Z,99.43
2022-08-20T08:30:02.677Z,99.31
2022-08-20T08:32:33.494Z,99.28
2022-08-20T08:35:08.630Z,99.22
2022-08-20T08:37:39.296Z,98.87
2022-08-20T08:40:10.182Z,98.96
2022-08-20T08:42:49.332Z,99.04
2022-08-20T08:45:20.885Z,99.00
2022-08-20T08:47:51.224Z,99.11
2022-08-20T08:50:50.105Z,99.21
2022-08-20T08:53:34.799Z,98.94
2022-08-20T08:56:09.019Z,98.89
2022-08-20T08:58:39.436Z,99.04
2022-08-20T09:01:56.277Z,99.31
2022-08-20T09:04:21.725Z,98.85
2022-08-20T09:06:56.571Z,98.93
2022-08-20T09:09:31.079Z,99.10
2022-08-20T09:12:16.346Z,99.20
2022-08-20T09:14:49.062Z,98.92
2022-08-20T09:17:20.828Z,99.26
2022-08-20T09:19:53.261Z,99.37
2022-08-20T09:22:27.070Z,99.25
2022-08-20T09:24:57.450Z,99.22
2022-08-20T09:27:27.164Z,99.32
2022-08-20T09:29:56.953Z,99.27
2022-08-20T09:32:27.128Z,99.31
2022-08-20T09:34:57.660Z,98.99
2022-08-20T09:37:33.686Z,99.20
2022-08-20T09:40:11.003Z,99.22
2022-08-20T09:42:41.869Z,99.20
2022-08-20T09:45:13.513Z,99.19
2022-08-20T09:47:56.229Z,99.19
2022-08-20T09:50:30.164Z,99.29
2022-08-20T09:53:02.521Z,99.21
2022-08-20T09:55:47.230Z,99.36
2022-08-20T09:58:40.191Z,99.52
2022-08-20T10:01:16.083Z,99.21
2022-08-20T10:03:49.862Z,99.21
2022-08-20T10:06:21.407Z,99.22
2022-08-20T10:08:52.168Z,99.41
2022-08-20T10:11:22.303Z,99.36
2022-08-20T10:13:52.220Z,99.23
2022-08-20T10:16:21.969Z,99.26
2022-08-20T10:18:51.690Z,99.43
2022-08-20T10:21:21.914Z,99.50
2022-08-20T10:23:51.910Z,99.27
2022-08-20T10:26:21.990Z,99.46
2022-08-20T10:28:51.845Z,99.20
2022-08-20T10:31:22.004Z,99.06
2022-08-20T10:33:51.318Z,98.56
2022-08-20T10:36:21.247Z,98.61
2022-08-20T10:38:51.416Z,98.49
2022-08-20T10:41:22.513Z,98.57
2022-08-20T10:43:52.657Z,98.34
2022-08-20T10:46:22.355Z,98.09
2022-08-20T10:48:52.128Z,97.96
2022-08-20T10:51:21.885Z,97.79
2022-08-20T10:54:02.664Z,97.68
2022-08-20T10:56:38.272Z,97.41
2022-08-20T10:59:08.178Z,96.98
2022-08-20T11:01:38.190Z,96.45
2022-08-20T11:04:07.529Z,95.93
2022-08-20T11:06:37.180Z,92.07
2022-08-20T11:09:06.926Z,89.07
2022-08-20T11:11:40.013Z,83.14
2022-08-20T11:14:09.773Z,77.35
2022-08-20T11:16:39.535Z,77.30
2022-08-20T11:19:09.239Z,72.29
2022-08-20T11:21:38.956Z,67.82
2022-08-20T11:24:08.825Z,64.47
2022-08-20T11:26:38.714Z,61.95
2022-08-20T11:29:07.976Z,65.93
2022-08-20T11:31:37.589Z,59.00
2022-08-20T11:34:12.070Z,61.53
2022-08-20T11:36:42.963Z,55.68
2022-08-20T11:39:13.267Z,54.31
2022-08-20T11:41:43.820Z,56.51
2022-08-20T11:44:20.886Z,56.72
2022-08-20T11:46:51.706Z,55.04
2022-08-20T11:49:21.598Z,56.71
2022-08-20T11:51:51.350Z,57.89
2022-08-20T11:54:21.109Z,54.15
2022-08-20T11:56:51.706Z,54.03
2022-08-20T11:59:22.087Z,52.56
2022-08-20T12:02:03.161Z,53.32
2022-08-20T12:04:35.007Z,53.82
2022-08-20T12:07:19.638Z,54.55
2022-08-20T12:09:51.062Z,54.19
2022-08-20T12:12:25.052Z,55.21
2022-08-20T12:14:56.827Z,53.93
2022-08-20T12:17:30.808Z,54.18
2022-08-20T12:20:05.040Z,54.49
2022-08-20T12:22:35.453Z,53.51
2022-08-20T12:25:07.255Z,55.48
2022-08-20T12:27:39.025Z,53.90
2022-08-20T12:30:16.505Z,56.36
2022-08-20T12:32:46.439Z,54.07
2022-08-20T12:35:18.214Z,56.27
2022-08-20T12:37:48.569Z,55.74
2022-08-20T12:40:30.827Z,57.14
2022-08-20T12:43:04.101Z,56.13
2022-08-20T12:45:37.129Z,56.47
2022-08-20T12:48:10.915Z,57.97
2022-08-20T12:50:43.576Z,57.11
2022-08-20T12:53:13.909Z,56.96
2022-08-20T12:55:43.807Z,57.63
2022-08-20T12:58:13.616Z,54.15
2022-08-20T13:00:50.344Z,56.26
2022-08-20T13:03:22.496Z,57.74
2022-08-20T13:05:52.723Z,54.38
2022-08-20T13:08:22.471Z,55.25
2022-08-20T13:10:53.264Z,53.95
2022-08-20T13:13:23.876Z,56.60
2022-08-20T13:15:54.006Z,56.08
2022-08-20T13:18:24.032Z,58.03
2022-08-20T13:20:53.839Z,54.83
2022-08-20T13:23:23.611Z,53.78
2022-08-20T13:25:53.639Z,55.35
2022-08-20T13:28:23.457Z,53.76
2022-08-20T13:30:53.209Z,53.80
2022-08-20T13:33:23.290Z,52.21
2022-08-20T13:35:53.018Z,53.66
2022-08-20T13:38:23.032Z,54.33
2022-08-20T13:40:54.937Z,51.26
2022-08-20T13:43:25.561Z,54.26
2022-08-20T13:45:56.090Z,51.39
2022-08-20T13:48:26.566Z,52.54
2022-08-20T13:50:56.382Z,52.62
2022-08-20T13:53:26.751Z,55.02
2022-08-20T13:55:57.526Z,51.15
2022-08-20T13:58:27.478Z,55.67
2022-08-20T14:00:57.376Z,54.23
2022-08-20T14:03:27.207Z,54.64
2022-08-20T14:05:58.434Z,52.51
2022-08-20T14:08:28.892Z,51.36
2022-08-20T14:11:00.191Z,49.05
2022-08-20T14:13:32.741Z,50.90
2022-08-20T14:16:02.663Z,50.29
2022-08-20T14:18:32.662Z,48.97
2022-08-20T14:21:03.226Z,49.88
2022-08-20T14:23:33.031Z,48.68
2022-08-20T14:26:07.245Z,50.44
2022-08-20T14:28:37.251Z,47.83
2022-08-20T14:31:07.121Z,51.64
2022-08-20T14:33:39.327Z,43.29
2022-08-20T14:36:12.769Z,53.68
2022-08-20T14:38:46.836Z,45.72
2022-08-20T14:41:17.381Z,48.09
2022-08-20T14:43:47.221Z,45.63
2022-08-20T14:46:18.482Z,47.00
2022-08-20T14:48:53.515Z,44.61
2022-08-20T14:51:24.444Z,43.55
2022-08-20T14:53:54.403Z,45.86
2022-08-20T14:56:24.359Z,43.57
2022-08-20T14:58:54.117Z,50.96
2022-08-20T15:01:25.298Z,47.94
2022-08-20T15:03:57.481Z,41.96
2022-08-20T15:06:36.644Z,43.30
2022-08-20T15:09:08.823Z,43.38
2022-08-20T15:11:41.075Z,47.47
2022-08-20T15:14:15.150Z,44.46
2022-08-20T15:16:49.712Z,42.10
2022-08-20T15:19:19.938Z,40.65
2022-08-20T15:21:50.173Z,42.42
2022-08-20T15:24:19.913Z,46.30
2022-08-20T15:26:49.806Z,40.29
2022-08-20T15:29:22.753Z,43.28
2022-08-20T15:31:53.664Z,39.98
2022-08-20T15:34:23.525Z,40.79
2022-08-20T15:36:53.368Z,43.20
2022-08-20T15:39:23.339Z,44.53
2022-08-20T15:41:53.085Z,45.41
2022-08-20T15:44:23.652Z,44.12
2022-08-20T15:46:53.826Z,43.69
2022-08-20T15:49:25.351Z,46.02
2022-08-20T15:51:55.604Z,41.13
2022-08-20T15:54:28.037Z,39.94
2022-08-20T15:57:33.187Z,45.16
2022-08-20T16:00:13.950Z,38.81
2022-08-20T16:02:53.794Z,45.74
2022-08-20T16:05:50.244Z,40.73
2022-08-20T16:08:38.307Z,41.42
2022-08-20T16:11:34.221Z,42.05
2022-08-20T16:14:18.102Z,43.52
2022-08-20T16:17:01.179Z,42.79
2022-08-20T16:19:55.862Z,43.52
2022-08-20T16:22:31.304Z,38.94
2022-08-20T16:25:02.136Z,41.44
2022-08-20T16:28:04.730Z,44.36
2022-08-20T16:30:50.017Z,40.07
2022-08-20T16:33:43.153Z,40.76
2022-08-20T16:36:26.485Z,38.65
2022-08-20T16:39:06.421Z,41.45
2022-08-20T16:41:41.131Z,42.68
2022-08-20T16:44:35.164Z,37.30
2022-08-20T16:47:13.952Z,38.94
2022-08-20T16:50:12.669Z,40.03
2022-08-20T16:52:46.644Z,38.65
2022-08-20T16:55:17.495Z,46.52
2022-08-20T16:57:49.421Z,40.43
2022-08-20T17:00:40.896Z,38.40
2022-08-20T17:03:39.135Z,42.36
2022-08-20T17:06:49.391Z,41.38
2022-08-20T17:09:36.045Z,41.94
2022-08-20T17:12:26.683Z,38.59
2022-08-20T17:14:59.458Z,39.74
2022-08-20T17:17:33.526Z,37.91
2022-08-20T17:20:20.490Z,37.59
2022-08-20T17:23:05.874Z,37.72
2022-08-20T17:25:40.897Z,37.59
2022-08-20T17:28:20.718Z,38.84
2022-08-20T17:30:51.248Z,34.58
2022-08-20T17:33:38.775Z,37.95
2022-08-20T17:36:13.319Z,36.80
2022-08-20T17:38:58.568Z,35.10
2022-08-20T17:41:36.984Z,34.65
2022-08-20T17:44:14.165Z,34.91
2022-08-20T17:46:47.595Z,38.60
2022-08-20T17:49:35.127Z,36.91
2022-08-20T17:52:13.246Z,33.52
2022-08-20T17:54:46.631Z,35.13
2022-08-20T17:57:19.965Z,35.94
2022-08-20T18:00:01.356Z,32.72
2022-08-20T18:02:35.773Z,32.61
2022-08-20T18:05:14.499Z,32.86
2022-08-20T18:08:05.743Z,33.84
2022-08-20T18:11:01.056Z,32.97
2022-08-20T18:14:01.931Z,35.33
2022-08-20T18:16:43.978Z,33.68
2022-08-20T18:19:34.497Z,33.01
2022-08-20T18:22:12.367Z,33.87
2022-08-20T18:24:46.383Z,33.85
2022-08-20T18:27:21.239Z,33.08
2022-08-20T18:30:03.387Z,31.15
2022-08-20T18:32:39.623Z,30.07
2022-08-20T18:35:21.490Z,32.26
2022-08-20T18:37:51.776Z,33.85
2022-08-20T18:40:31.324Z,31.52
2022-08-20T18:43:15.302Z,31.88
2022-08-20T18:45:45.833Z,30.91
2022-08-20T18:48:25.038Z,30.49
2022-08-20T18:50:58.272Z,30.23
2022-08-20T18:53:34.389Z,31.95
2022-08-20T18:56:09.931Z,31.31
2022-08-20T18:59:14.498Z,31.57
2022-08-20T19:01:47.439Z,31.51
2022-08-20T19:04:29.522Z,32.53
2022-08-20T19:07:07.539Z,32.24
2022-08-20T19:10:15.336Z,33.04
2022-08-20T19:13:13.092Z,34.21
2022-08-20T19:15:53.374Z,34.55
2022-08-20T19:18:32.519Z,37.41
2022-08-20T19:21:05.119Z,48.72
2022-08-20T19:23:52.503Z,53.31
2022-08-20T19:26:26.204Z,54.19
2022-08-20T19:29:01.220Z,56.20
2022-08-20T19:31:34.535Z,57.06
2022-08-20T19:34:21.631Z,57.69
2022-08-20T19:36:56.893Z,56.96
2022-08-20T19:39:29.777Z,59.98
2022-08-20T19:42:21.879Z,59.88
2022-08-20T19:45:06.081Z,60.42
2022-08-20T19:47:38.474Z,60.77
2022-08-20T19:50:49.752Z,62.33
2022-08-20T19:53:30.488Z,61.87
2022-08-20T19:56:09.457Z,62.54
2022-08-20T19:58:40.011Z,62.62
2022-08-20T20:01:23.228Z,61.82
2022-08-20T20:04:01.794Z,63.55
2022-08-20T20:06:39.635Z,64.99
2022-08-20T20:09:30.960Z,62.99
2022-08-20T20:12:05.276Z,64.30
2022-08-20T20:14:37.989Z,64.15
2022-08-20T20:17:09.915Z,65.08
2022-08-20T20:20:01.190Z,64.95
2022-08-20T20:22:48.205Z,64.75
2022-08-20T20:25:26.046Z,66.70
2022-08-20T20:27:59.924Z,67.74
2022-08-20T20:30:33.369Z,66.80
2022-08-20T20:33:12.905Z,67.68
2022-08-20T20:35:44.930Z,68.51
2022-08-20T20:38:29.525Z,69.50
2022-08-20T20:41:02.349Z,71.84
2022-08-20T20:43:44.112Z,72.13
2022-08-20T20:46:29.033Z,71.53
2022-08-20T20:49:10.380Z,70.53
2022-08-20T20:51:54.530Z,71.86
2022-08-20T20:54:33.410Z,71.87
2022-08-20T20:57:10.235Z,73.24
2022-08-20T20:59:40.408Z,72.28
2022-08-20T21:02:11.176Z,74.07
2022-08-20T21:04:42.783Z,73.98
2022-08-20T21:07:16.845Z,74.49
2022-08-20T21:09:47.254Z,73.62
2022-08-20T21:12:17.816Z,75.53
2022-08-20T21:14:48.138Z,74.42
2022-08-20T21:17:23.926Z,76.29
2022-08-20T21:19:53.905Z,72.66
2022-08-20T21:22:23.999Z,76.69
2022-08-20T21:24:54.171Z,77.78
2022-08-20T21:27:25.630Z,77.55
2022-08-20T21:29:56.491Z,78.59
2022-08-20T21:32:29.378Z,79.57
2022-08-20T21:34:59.542Z,79.61
2022-08-20T21:37:29.720Z,79.14
2022-08-20T21:39:59.758Z,78.82
2022-08-20T21:42:30.952Z,79.45
2022-08-20T21:45:01.791Z,79.42
2022-08-20T21:47:32.201Z,79.56
2022-08-20T21:50:02.002Z,79.91
2022-08-20T21:52:31.762Z,80.20
2022-08-20T21:55:01.520Z,80.33
2022-08-20T21:57:34.784Z,81.18
2022-08-20T22:00:22.437Z,80.91
2022-08-20T22:02:52.533Z,80.94
2022-08-20T22:05:22.694Z,81.48
2022-08-20T22:07:52.444Z,81.20
2022-08-20T22:10:22.605Z,81.16
2022-08-20T22:12:52.415Z,82.13
2022-08-20T22:15:22.394Z,82.15
2022-08-20T22:17:51.673Z,81.12
2022-08-20T22:20:21.429Z,82.58
2022-08-20T22:22:50.837Z,80.67
2022-08-20T22:25:20.694Z,83.09
2022-08-20T22:27:50.764Z,83.71
2022-08-20T22:30:20.656Z,83.70
2022-08-20T22:32:52.367Z,81.70
2022-08-20T22:35:33.444Z,83.13
2022-08-20T22:38:03.804Z,83.66
2022-08-20T22:40:33.580Z,84.49
2022-08-20T22:43:03.688Z,83.82
2022-08-20T22:45:33.781Z,81.59
2022-08-20T22:48:04.085Z,84.77
2022-08-20T22:50:33.957Z,85.88
2022-08-20T22:53:04.366Z,83.58
2022-08-20T22:55:34.033Z,85.91
2022-08-20T22:58:03.862Z,86.52
2022-08-20T23:00:36.663Z,87.28
2022-08-20T23:03:07.528Z,87.75
2022-08-20T23:05:38.953Z,88.28
2022-08-20T23:08:09.539Z,88.33
2022-08-20T23:10:40.526Z,88.93
2022-08-20T23:13:10.434Z,89.13
2022-08-20T23:15:45.493Z,87.33
2022-08-20T23:18:18.828Z,89.26
2022-08-20T23:20:54.372Z,89.62
2022-08-20T23:23:25.704Z,90.25
2022-08-20T23:25:56.621Z,90.88
2022-08-20T23:28:27.856Z,91.29
2022-08-20T23:30:58.131Z,91.63
2022-08-20T23:33:27.887Z,92.14
2022-08-20T23:35:58.060Z,92.37
2022-08-20T23:38:27.820Z,92.14
2022-08-20T23:41:02.154Z,91.39
2022-08-20T23:43:32.379Z,90.24
2022-08-20T23:46:05.716Z,89.35
2022-08-20T23:48:36.709Z,89.99
2022-08-20T23:51:06.833Z,90.70
2022-08-20T23:53:36.692Z,91.80
2022-08-20T23:56:06.857Z,92.28
2022-08-20T23:58:36.624Z,92.58
